Wimauma, FL (33598)

1:01 AM EST on December 08, 2016 (GMT -0500)
Valencia Lakes - Crystal Beach Drive | | Change Station

Elev 95 ft 27.73 °N, 82.32 °W | Updated 23 seconds ago

Clear
Clear
58.0 °F
Feels Like 58.0 °F
N
1.0
Wind Variable Wind from NE

Today
High -- | Low -- °F
--% Chance of Precip.
Yesterday
High -- | Low -- °F
Precip. -- in
Pressure 30.11 in
Visibility 9.0 miles
Clouds Clear
Dew Point 57 °F
Humidity 98%
Rainfall 0.00 in
Snow Depth Not available.
7:08 AM 5:34 PM
First Quarter, 60% visible
METAR KMCF 080558Z AUTO 05005KT 9SM CLR 14/14 A3010 RMK AO2 SLP196 T01370135 10187 20137 57007 $
Pressure 30.11 in
Visibility 9.0 miles
Clouds Clear
Dew Point 57 °F
Humidity 98%
Rainfall 0.00 in
Snow Depth Not available.
7:08 AM 5:34 PM
First Quarter, 60% visible
METAR KMCF 080558Z AUTO 05005KT 9SM CLR 14/14 A3010 RMK AO2 SLP196 T01370135 10187 20137 57007 $

10-Day Weather Forecast

Almanac

Astronomy

Dec. 08, 2016 Rise Set
Actual Time
Civil Twilight
Nautical Twilight
Astronomical Twilight
Moon
Length of Visible Light
Length of Day
Tomorrow will be .
, % of the Moon is Illuminated

Today's Extremes

State Highs State Lows

Community

WunderPhotos

Upload Photos

1,956,259 photos uploaded!

WunderBlog® & News

Nearby

Air Quality

  Air Quality AQ Index Pollutant
Not available.

Snow Depth

Station Depth Elevation

Earthquake Activity

City Distance Mag. Time & Date
Minimum magnitude displayed is 2.5.

Coastal Water Temperatures

Place Temperature

Stations

Nearby Weather Stations

Station Location Temp. Windchill Dew Point Humidity Wind Precip. Elev Updated Type
                   

Watches & Warnings

There are currently no watches in effect.